Time;durP1;ratioP1;P1;durP2;ratioP2;P2;SDS_P1;SDS_P2;PMS_P1;PMS_P2;Temp;Humidity;BMP_temperature;BMP_pressure;BME280_temperature;BME280_humidity;BME280_pressure;Samples;Min_cycle;Max_cycle;Signal;HPM_P1;HPM_P2
2022/10/25 00:01:17;;;;;;;1.73;0.50;;;;;;;;;;4952585;28;20393;-86
2022/10/25 00:03:43;;;;;;;1.77;0.40;;;;;;;;;;4971720;28;20398;-86
2022/10/25 00:06:10;;;;;;;1.92;0.68;;;;;;;;;;4956075;29;20133;-87
2022/10/25 00:08:38;;;;;;;1.63;0.30;;;;;;;;;;4987632;28;20035;-87
2022/10/25 00:11:05;;;;;;;2.88;1.08;;;;;;;;;;4952106;29;20042;-86
2022/10/25 00:13:30;;;;;;;3.95;0.50;;;;;;;;;;4952451;29;20114;-86
2022/10/25 00:15:57;;;;;;;3.65;0.75;;;;;;;;;;4952466;28;20123;-86
2022/10/25 00:18:22;;;;;;;1.30;0.38;;;;;;;;;;4968094;28;20087;-86
2022/10/25 00:20:48;;;;;;;2.35;0.57;;;;;;;;;;4968357;28;20036;-86
2022/10/25 00:23:13;;;;;;;2.03;0.47;;;;;;;;;;4951740;29;20043;-86
2022/10/25 00:25:40;;;;;;;1.95;0.57;;;;;;;;;;4967929;28;20044;-86
2022/10/25 00:28:07;;;;;;;1.92;0.52;;;;;;;;;;4968221;28;20032;-86
2022/10/25 00:30:33;;;;;;;1.00;0.40;;;;;;;;;;4952147;29;20031;-86
2022/10/25 00:33:00;;;;;;;1.15;0.38;;;;;;;;;;4968193;28;20031;-86
2022/10/25 00:35:27;;;;;;;1.23;0.50;;;;;;;;;;4967964;28;20040;-85
2022/10/25 00:37:54;;;;;;;3.22;0.80;;;;;;;;;;4951443;28;20032;-86
2022/10/25 00:40:20;;;;;;;1.73;0.40;;;;;;;;;;4951434;29;20070;-86
2022/10/25 00:42:48;;;;;;;3.13;0.38;;;;;;;;;;4968292;28;20040;-85
2022/10/25 00:45:22;;;;;;;1.90;0.60;;;;;;;;;;4967836;28;20040;-85
2022/10/25 00:47:58;;;;;;;0.88;0.28;;;;;;;;;;4955194;29;20597;-86
2022/10/25 00:50:44;;;;;;;3.15;0.63;;;;;;;;;;4987276;28;20109;-86
2022/10/25 00:53:28;;;;;;;1.55;0.45;;;;;;;;;;4986967;28;20031;-86
2022/10/25 00:56:04;;;;;;;1.55;0.50;;;;;;;;;;4954523;29;20078;-86
2022/10/25 00:58:32;;;;;;;2.55;0.70;;;;;;;;;;4954546;29;20027;-86
2022/10/25 01:00:58;;;;;;;1.33;0.60;;;;;;;;;;4967523;28;20567;-85
2022/10/25 01:03:24;;;;;;;1.30;0.47;;;;;;;;;;4979008;28;20102;-86
2022/10/25 01:05:51;;;;;;;2.50;0.57;;;;;;;;;;4973882;28;20038;-86
2022/10/25 01:08:19;;;;;;;1.73;0.55;;;;;;;;;;4990129;28;20065;-86
2022/10/25 01:10:44;;;;;;;3.25;0.75;;;;;;;;;;4973754;28;20031;-86
2022/10/25 01:13:09;;;;;;;1.90;0.68;;;;;;;;;;4989952;28;20031;-86
2022/10/25 01:16:01;;;;;;;2.55;0.60;;;;;;;;;;4973882;28;20442;-86
2022/10/25 01:18:35;;;;;;;2.13;0.50;;;;;;;;;;4985300;28;20046;-86
2022/10/25 01:21:34;;;;;;;2.33;0.40;;;;;;;;;;4989572;28;20054;-86
2022/10/25 01:24:18;;;;;;;1.70;0.50;;;;;;;;;;4989618;28;20093;-86
2022/10/25 01:27:02;;;;;;;0.55;0.20;;;;;;;;;;4989527;28;20052;-85
2022/10/25 01:29:58;;;;;;;1.23;0.50;;;;;;;;;;4989726;28;20035;-85
2022/10/25 01:33:00;;;;;;;0.98;0.40;;;;;;;;;;4965817;28;20406;-86
2022/10/25 01:35:30;;;;;;;0.88;0.30;;;;;;;;;;4988853;28;20062;-86
2022/10/25 01:38:26;;;;;;;1.55;0.40;;;;;;;;;;4989775;28;20496;-85
2022/10/25 01:41:01;;;;;;;3.15;0.82;;;;;;;;;;4976489;28;20031;-86
2022/10/25 01:43:47;;;;;;;1.05;0.30;;;;;;;;;;4986171;28;20178;-85
2022/10/25 01:46:16;;;;;;;0.93;0.30;;;;;;;;;;4986246;28;20030;-85
2022/10/25 01:48:45;;;;;;;1.30;0.40;;;;;;;;;;4969732;28;20568;-85
2022/10/25 01:51:12;;;;;;;0.95;0.30;;;;;;;;;;4969582;28;20027;-86
2022/10/25 01:53:47;;;;;;;2.20;0.50;;;;;;;;;;4969765;28;20517;-86
2022/10/25 01:56:33;;;;;;;2.00;0.57;;;;;;;;;;4969159;28;20026;-86
2022/10/25 01:59:24;;;;;;;1.42;0.40;;;;;;;;;;4969733;28;20398;-85
2022/10/25 02:01:58;;;;;;;3.90;0.88;;;;;;;;;;4986032;28;20371;-86
2022/10/25 02:04:43;;;;;;;2.25;0.75;;;;;;;;;;4985808;28;20501;-86
2022/10/25 02:07:17;;;;;;;2.05;0.50;;;;;;;;;;4937365;29;20031;-85
2022/10/25 02:10:06;;;;;;;1.77;0.60;;;;;;;;;;4949965;29;20027;-85
2022/10/25 02:12:46;;;;;;;1.20;0.32;;;;;;;;;;4934620;29;20087;-86
2022/10/25 02:15:20;;;;;;;0.57;0.50;;;;;;;;;;4949630;29;20027;-86
2022/10/25 02:17:52;;;;;;;1.23;0.50;;;;;;;;;;4949431;28;20031;-86
2022/10/25 02:20:18;;;;;;;1.08;0.40;;;;;;;;;;4949824;28;20036;-86
2022/10/25 02:22:43;;;;;;;2.17;0.38;;;;;;;;;;4965967;28;20106;-86
2022/10/25 02:25:09;;;;;;;1.92;0.30;;;;;;;;;;4965517;28;20039;-86
2022/10/25 02:27:35;;;;;;;2.55;0.50;;;;;;;;;;4950043;29;20035;-86
2022/10/25 02:30:02;;;;;;;1.00;0.40;;;;;;;;;;4950186;29;20040;-86
2022/10/25 02:32:27;;;;;;;1.50;0.45;;;;;;;;;;4917897;29;20490;-86
2022/10/25 02:34:54;;;;;;;2.08;0.38;;;;;;;;;;4977432;28;20118;-85
2022/10/25 02:37:19;;;;;;;1.20;0.47;;;;;;;;;;4969081;28;20058;-86
2022/10/25 02:39:45;;;;;;;1.05;0.30;;;;;;;;;;4953065;29;20066;-86
2022/10/25 02:42:13;;;;;;;1.13;0.25;;;;;;;;;;4984941;28;20124;-86
2022/10/25 02:44:39;;;;;;;1.02;0.60;;;;;;;;;;4968975;28;20043;-86
2022/10/25 02:47:06;;;;;;;1.08;0.30;;;;;;;;;;4968784;28;20031;-86
2022/10/25 02:49:32;;;;;;;2.80;0.80;;;;;;;;;;4969083;28;20031;-86
2022/10/25 02:51:57;;;;;;;1.20;0.35;;;;;;;;;;4968904;28;20031;-86
2022/10/25 02:54:23;;;;;;;2.15;0.47;;;;;;;;;;4984942;28;20047;-86
2022/10/25 02:56:51;;;;;;;1.13;0.40;;;;;;;;;;4984645;28;20042;-86
2022/10/25 02:59:18;;;;;;;1.42;0.40;;;;;;;;;;4984622;28;20046;-86
2022/10/25 03:01:44;;;;;;;0.70;0.30;;;;;;;;;;4968135;28;20043;-86
2022/10/25 03:04:10;;;;;;;1.25;0.30;;;;;;;;;;4984976;28;20035;-86
2022/10/25 03:06:37;;;;;;;0.98;0.20;;;;;;;;;;4968880;28;20066;-86
2022/10/25 03:09:04;;;;;;;1.88;0.43;;;;;;;;;;4984950;28;20036;-86
2022/10/25 03:11:31;;;;;;;1.45;0.32;;;;;;;;;;4936702;29;20031;-86
2022/10/25 03:13:56;;;;;;;0.98;0.40;;;;;;;;;;4968355;28;20050;-85
2022/10/25 03:16:22;;;;;;;2.15;0.20;;;;;;;;;;4984281;28;20035;-86
2022/10/25 03:18:49;;;;;;;2.10;0.52;;;;;;;;;;4984675;28;20043;-85
2022/10/25 03:21:14;;;;;;;2.10;0.50;;;;;;;;;;4968547;28;20035;-86
2022/10/25 03:23:40;;;;;;;1.23;0.20;;;;;;;;;;4968228;28;20047;-86
2022/10/25 03:26:05;;;;;;;1.05;0.25;;;;;;;;;;4968029;28;20035;-86
2022/10/25 03:28:31;;;;;;;0.40;0.20;;;;;;;;;;4978964;28;20051;-85
2022/10/25 03:30:56;;;;;;;1.40;0.43;;;;;;;;;;4968303;28;20415;-85
2022/10/25 03:33:23;;;;;;;2.17;0.40;;;;;;;;;;4984408;28;20031;-86
2022/10/25 03:35:50;;;;;;;1.50;0.38;;;;;;;;;;4984862;28;20038;-86
2022/10/25 03:38:18;;;;;;;0.95;0.32;;;;;;;;;;4984722;28;20093;-86
2022/10/25 03:40:43;;;;;;;2.13;0.40;;;;;;;;;;4984560;28;20038;-86
2022/10/25 03:43:10;;;;;;;1.23;0.35;;;;;;;;;;4952295;28;20027;-86
2022/10/25 03:45:35;;;;;;;1.02;0.22;;;;;;;;;;4984413;28;20110;-86
2022/10/25 03:48:01;;;;;;;0.60;0.20;;;;;;;;;;4968366;28;20035;-85
2022/10/25 03:50:26;;;;;;;0.85;0.30;;;;;;;;;;4952328;29;20032;-86
2022/10/25 03:52:52;;;;;;;1.27;0.30;;;;;;;;;;4968115;28;20043;-86
2022/10/25 03:55:18;;;;;;;1.00;0.20;;;;;;;;;;4983911;28;20498;-86
2022/10/25 03:57:46;;;;;;;2.88;0.65;;;;;;;;;;4984672;28;20031;-85
2022/10/25 04:00:12;;;;;;;1.55;0.30;;;;;;;;;;4968270;28;20045;-86
2022/10/25 04:02:37;;;;;;;1.65;0.47;;;;;;;;;;4970098;28;20023;-85
2022/10/25 04:05:03;;;;;;;1.05;0.30;;;;;;;;;;4971465;28;20042;-85
2022/10/25 04:07:28;;;;;;;0.50;0.13;;;;;;;;;;4971713;28;20050;-86
2022/10/25 04:09:54;;;;;;;1.63;0.22;;;;;;;;;;4977620;28;20050;-86
2022/10/25 04:12:20;;;;;;;1.80;0.40;;;;;;;;;;4965011;28;20394;-85
2022/10/25 04:14:46;;;;;;;1.27;0.40;;;;;;;;;;4983194;28;20054;-86
2022/10/25 04:17:12;;;;;;;0.73;0.20;;;;;;;;;;4984853;28;20446;-85
2022/10/25 04:19:39;;;;;;;1.85;0.47;;;;;;;;;;4971365;28;20489;-86
2022/10/25 04:22:05;;;;;;;1.05;0.20;;;;;;;;;;4971060;28;20050;-86
2022/10/25 04:24:31;;;;;;;1.65;0.20;;;;;;;;;;4987542;28;20043;-86
2022/10/25 04:26:57;;;;;;;1.08;0.20;;;;;;;;;;4971235;28;20432;-86
2022/10/25 04:29:24;;;;;;;1.48;0.20;;;;;;;;;;4987140;28;20035;-86
2022/10/25 04:31:50;;;;;;;1.05;0.30;;;;;;;;;;4987333;28;20035;-86
2022/10/25 04:34:17;;;;;;;1.33;0.20;;;;;;;;;;4987290;28;20035;-85
2022/10/25 04:36:43;;;;;;;2.13;0.30;;;;;;;;;;4987776;28;20118;-85
2022/10/25 04:39:09;;;;;;;3.88;0.50;;;;;;;;;;4971159;28;20031;-85
2022/10/25 04:41:35;;;;;;;0.85;0.20;;;;;;;;;;4987229;28;20390;-85
2022/10/25 04:44:01;;;;;;;1.13;0.38;;;;;;;;;;4970987;28;20031;-85
2022/10/25 04:46:28;;;;;;;1.02;0.20;;;;;;;;;;4954713;28;20043;-86
2022/10/25 04:48:54;;;;;;;1.58;0.30;;;;;;;;;;4971012;28;20073;-86
2022/10/25 04:51:20;;;;;;;1.90;0.40;;;;;;;;;;4970773;28;20031;-85
2022/10/25 04:53:45;;;;;;;1.17;0.25;;;;;;;;;;4970711;28;20039;-86
2022/10/25 04:56:13;;;;;;;2.22;0.50;;;;;;;;;;4986765;28;20398;-86
2022/10/25 04:58:39;;;;;;;0.98;0.30;;;;;;;;;;4986566;28;20023;-85
2022/10/25 05:01:08;;;;;;;1.40;0.50;;;;;;;;;;4986496;28;20066;-86
2022/10/25 05:03:33;;;;;;;0.75;0.10;;;;;;;;;;4980385;28;20027;-86
2022/10/25 05:06:09;;;;;;;2.03;0.40;;;;;;;;;;4974098;28;20026;-86
2022/10/25 05:08:39;;;;;;;1.45;0.40;;;;;;;;;;4990284;28;20382;-86
2022/10/25 05:11:06;;;;;;;1.45;0.40;;;;;;;;;;4973648;28;20031;-86
2022/10/25 05:13:36;;;;;;;1.42;0.32;;;;;;;;;;4970339;28;20065;-87
2022/10/25 05:16:02;;;;;;;2.17;0.30;;;;;;;;;;4970144;28;20039;-85
2022/10/25 05:18:29;;;;;;;0.85;0.28;;;;;;;;;;4954603;29;20074;-86
2022/10/25 05:20:57;;;;;;;1.65;0.30;;;;;;;;;;4954100;29;20032;-87
2022/10/25 05:23:23;;;;;;;2.65;0.30;;;;;;;;;;4986446;28;20074;-86
2022/10/25 05:25:58;;;;;;;0.98;0.38;;;;;;;;;;4969882;28;20062;-86
2022/10/25 05:28:25;;;;;;;1.48;0.30;;;;;;;;;;4986357;28;20031;-87
2022/10/25 05:30:50;;;;;;;1.58;0.60;;;;;;;;;;4969684;28;20409;-85
2022/10/25 05:33:16;;;;;;;0.98;0.30;;;;;;;;;;4970093;28;20031;-87
2022/10/25 05:35:43;;;;;;;1.55;0.52;;;;;;;;;;4970789;28;20027;-88
2022/10/25 05:38:09;;;;;;;0.73;0.20;;;;;;;;;;4970577;28;20035;-83
2022/10/25 05:40:37;;;;;;;1.23;0.40;;;;;;;;;;4971127;28;20406;-90
2022/10/25 05:43:03;;;;;;;1.60;0.68;;;;;;;;;;4955431;29;20024;-91
2022/10/25 05:45:31;;;;;;;1.77;0.32;;;;;;;;;;4955067;29;20039;-90
2022/10/25 05:47:58;;;;;;;3.95;0.52;;;;;;;;;;4955245;29;20081;-91
2022/10/25 05:50:23;;;;;;;0.95;0.30;;;;;;;;;;4955065;29;20085;-91
2022/10/25 05:52:57;;;;;;;2.28;0.70;;;;;;;;;;4971164;28;20027;-91
2022/10/25 05:55:24;;;;;;;2.47;0.60;;;;;;;;;;4954651;29;20031;-90
2022/10/25 05:57:52;;;;;;;2.75;0.80;;;;;;;;;;4970751;28;20027;-88
2022/10/25 06:00:17;;;;;;;5.07;0.80;;;;;;;;;;4969257;28;20054;-85
2022/10/25 06:02:43;;;;;;;5.32;0.73;;;;;;;;;;4988187;28;20039;-86
2022/10/25 06:05:09;;;;;;;5.38;0.77;;;;;;;;;;4973097;28;20058;-87
2022/10/25 06:07:37;;;;;;;4.40;0.70;;;;;;;;;;4989100;28;20050;-86
2022/10/25 06:10:03;;;;;;;4.03;0.80;;;;;;;;;;4988840;28;20039;-86
2022/10/25 06:12:29;;;;;;;4.55;0.80;;;;;;;;;;4972643;28;20094;-86
2022/10/25 06:14:55;;;;;;;3.72;1.75;;;;;;;;;;4972666;28;20030;-86
2022/10/25 06:17:21;;;;;;;5.93;1.40;;;;;;;;;;4955979;28;20102;-86
2022/10/25 06:19:47;;;;;;;5.25;1.13;;;;;;;;;;4985471;28;20441;-86
2022/10/25 06:22:14;;;;;;;5.90;1.10;;;;;;;;;;4969367;28;20031;-86
2022/10/25 06:24:40;;;;;;;5.70;1.58;;;;;;;;;;4969085;28;20031;-86
2022/10/25 06:27:07;;;;;;;6.22;1.80;;;;;;;;;;4969139;28;20027;-86
2022/10/25 06:29:33;;;;;;;11.13;2.10;;;;;;;;;;4969600;28;20031;-87
2022/10/25 06:32:00;;;;;;;6.05;1.30;;;;;;;;;;4969124;28;20089;-87
2022/10/25 06:34:27;;;;;;;11.98;2.33;;;;;;;;;;4969314;28;20047;-87
2022/10/25 06:36:53;;;;;;;7.97;1.55;;;;;;;;;;4968739;28;20027;-86
2022/10/25 06:39:19;;;;;;;7.00;1.98;;;;;;;;;;4952856;29;20038;-86
2022/10/25 06:41:44;;;;;;;13.07;2.15;;;;;;;;;;4985096;28;20094;-89
2022/10/25 06:44:10;;;;;;;10.15;2.33;;;;;;;;;;4952673;29;20438;-84
2022/10/25 06:46:36;;;;;;;16.35;2.63;;;;;;;;;;4984834;28;20375;-84
2022/10/25 06:49:04;;;;;;;10.98;2.40;;;;;;;;;;4985071;28;20414;-83
2022/10/25 06:51:31;;;;;;;15.88;3.05;;;;;;;;;;4984595;28;20023;-83
2022/10/25 06:53:57;;;;;;;8.85;2.47;;;;;;;;;;4984744;28;20031;-83
2022/10/25 06:56:23;;;;;;;8.35;2.22;;;;;;;;;;4982033;28;20023;-82
2022/10/25 06:58:50;;;;;;;7.00;2.10;;;;;;;;;;4983706;28;20074;-83
2022/10/25 07:01:25;;;;;;;8.90;2.00;;;;;;;;;;4984619;28;20035;-83
2022/10/25 07:03:52;;;;;;;9.57;1.95;;;;;;;;;;4952277;29;20034;-81
2022/10/25 07:06:26;;;;;;;7.57;2.22;;;;;;;;;;4969536;28;20035;-84
2022/10/25 07:08:59;;;;;;;8.02;1.95;;;;;;;;;;4951745;28;20130;-82
2022/10/25 07:11:26;;;;;;;6.32;1.50;;;;;;;;;;4978366;28;20063;-83
2022/10/25 07:13:52;;;;;;;5.70;1.45;;;;;;;;;;4967822;28;20035;-81
2022/10/25 07:16:18;;;;;;;6.28;1.52;;;;;;;;;;4967577;28;20075;-82
2022/10/25 07:18:44;;;;;;;11.60;2.15;;;;;;;;;;4968091;28;20039;-82
2022/10/25 07:21:15;;;;;;;6.53;1.30;;;;;;;;;;4952148;28;20405;-82
2022/10/25 07:23:43;;;;;;;6.15;1.10;;;;;;;;;;4967619;28;20375;-82
2022/10/25 07:26:14;;;;;;;6.35;1.45;;;;;;;;;;4968302;28;20541;-82
2022/10/25 07:28:41;;;;;;;9.27;1.77;;;;;;;;;;4968241;28;20390;-82
2022/10/25 07:31:07;;;;;;;4.35;0.82;;;;;;;;;;4968199;28;20031;-83
2022/10/25 07:33:32;;;;;;;6.47;1.55;;;;;;;;;;4968054;28;20058;-82
2022/10/25 07:35:58;;;;;;;7.25;0.90;;;;;;;;;;4968332;28;20118;-82
2022/10/25 07:38:23;;;;;;;9.07;1.13;;;;;;;;;;4966915;28;20043;-82
2022/10/25 07:40:58;;;;;;;3.88;1.33;;;;;;;;;;4967859;28;20039;-82
2022/10/25 07:43:27;;;;;;;3.92;1.30;;;;;;;;;;4967864;28;20057;-80
2022/10/25 07:45:52;;;;;;;4.80;1.60;;;;;;;;;;4967880;28;20122;-82
2022/10/25 07:48:18;;;;;;;3.25;0.93;;;;;;;;;;4969188;28;20134;-82
2022/10/25 07:50:43;;;;;;;6.18;1.27;;;;;;;;;;4971814;28;20090;-82
2022/10/25 07:53:09;;;;;;;2.03;0.60;;;;;;;;;;4971990;28;20378;-82
2022/10/25 07:55:34;;;;;;;5.75;0.93;;;;;;;;;;4955313;28;20102;-82
2022/10/25 07:58:00;;;;;;;3.60;0.82;;;;;;;;;;4971683;28;20039;-82
2022/10/25 08:00:26;;;;;;;6.45;1.50;;;;;;;;;;4987502;28;20038;-82
2022/10/25 08:02:51;;;;;;;6.35;1.65;;;;;;;;;;4952312;28;20032;-82
2022/10/25 08:05:17;;;;;;;4.15;1.00;;;;;;;;;;4968279;28;20062;-82
2022/10/25 08:07:42;;;;;;;3.72;1.10;;;;;;;;;;4951922;29;20398;-82
2022/10/25 08:10:08;;;;;;;2.38;1.25;;;;;;;;;;4977021;28;20106;-82
2022/10/25 08:12:33;;;;;;;2.58;0.60;;;;;;;;;;4974212;28;20400;-82
2022/10/25 08:14:59;;;;;;;10.57;1.48;;;;;;;;;;4986264;28;20441;-82
2022/10/25 08:17:24;;;;;;;8.00;1.25;;;;;;;;;;4986951;28;20126;-82
2022/10/25 08:19:50;;;;;;;5.38;0.70;;;;;;;;;;4986817;28;20474;-82
2022/10/25 08:22:15;;;;;;;4.35;1.02;;;;;;;;;;4987078;28;20039;-83
2022/10/25 08:24:40;;;;;;;3.55;0.50;;;;;;;;;;4987321;28;20745;-82
2022/10/25 08:27:06;;;;;;;4.13;1.17;;;;;;;;;;4969774;28;20413;-83
2022/10/25 08:29:31;;;;;;;3.13;1.38;;;;;;;;;;4986920;28;20442;-82
2022/10/25 08:31:57;;;;;;;5.68;1.27;;;;;;;;;;4967583;28;20410;-82
2022/10/25 08:34:22;;;;;;;2.88;0.70;;;;;;;;;;4967646;28;20367;-82
2022/10/25 08:36:49;;;;;;;2.65;0.70;;;;;;;;;;4967981;28;20083;-82
2022/10/25 08:39:16;;;;;;;2.47;0.93;;;;;;;;;;4971231;28;20371;-82
2022/10/25 08:41:49;;;;;;;2.67;0.85;;;;;;;;;;4954647;28;20047;-82
2022/10/25 08:44:22;;;;;;;3.83;1.13;;;;;;;;;;4954191;29;20481;-82
2022/10/25 08:47:03;;;;;;;5.00;1.90;;;;;;;;;;4970651;28;20043;-82
2022/10/25 08:49:44;;;;;;;5.28;1.88;;;;;;;;;;4954177;29;20513;-82
2022/10/25 08:52:33;;;;;;;11.90;5.22;;;;;;;;;;4969980;28;20058;-82
2022/10/25 08:55:00;;;;;;;20.70;12.65;;;;;;;;;;4970262;28;20090;-82
2022/10/25 08:57:31;;;;;;;14.85;7.70;;;;;;;;;;4954842;29;20031;-82
2022/10/25 08:59:59;;;;;;;23.08;11.23;;;;;;;;;;4953742;28;20918;-82
2022/10/25 09:02:53;;;;;;;20.73;12.02;;;;;;;;;;4970932;28;20487;-82
2022/10/25 09:05:38;;;;;;;17.98;10.85;;;;;;;;;;4989540;28;20030;-82
2022/10/25 09:08:21;;;;;;;22.45;11.85;;;;;;;;;;4987804;28;20363;-82
2022/10/25 09:10:52;;;;;;;18.33;9.50;;;;;;;;;;4969605;28;20031;-81
2022/10/25 09:13:48;;;;;;;24.17;11.65;;;;;;;;;;4954446;28;20034;-82
2022/10/25 09:16:26;;;;;;;19.48;10.02;;;;;;;;;;4953679;28;20616;-82
2022/10/25 09:18:58;;;;;;;16.90;10.13;;;;;;;;;;4970210;28;20094;-82
2022/10/25 09:21:27;;;;;;;;;;;;;;;;;;4965544;28;20040;-82
2022/10/25 09:24:20;;;;;;;17.30;11.13;;;;;;;;;;4967016;28;19911;-83
2022/10/25 09:26:52;;;;;;;17.38;9.32;;;;;;;;;;4931626;29;20035;-82
2022/10/25 09:29:27;;;;;;;18.08;9.15;;;;;;;;;;4936212;29;20039;-82
2022/10/25 09:31:55;;;;;;;15.88;8.60;;;;;;;;;;4966704;28;20075;-82
2022/10/25 09:34:21;;;;;;;16.58;8.48;;;;;;;;;;4982355;28;20498;-82
2022/10/25 09:36:48;;;;;;;15.95;9.18;;;;;;;;;;4982412;28;20509;-82
2022/10/25 09:39:30;;;;;;;15.27;9.00;;;;;;;;;;4965951;28;20578;-82
2022/10/25 09:41:56;;;;;;;14.90;7.97;;;;;;;;;;4981759;28;20051;-82
2022/10/25 09:44:45;;;;;;;14.10;8.27;;;;;;;;;;4982589;28;20474;-82
2022/10/25 09:47:11;;;;;;;19.20;8.98;;;;;;;;;;4982587;28;20490;-82
2022/10/25 09:49:55;;;;;;;15.23;8.00;;;;;;;;;;4935513;29;20032;-82
2022/10/25 09:52:29;;;;;;;13.00;7.50;;;;;;;;;;4980920;28;20027;-82
2022/10/25 09:55:16;;;;;;;12.40;7.13;;;;;;;;;;4965993;28;20034;-82
2022/10/25 09:57:41;;;;;;;14.50;7.45;;;;;;;;;;4949959;29;20072;-82
2022/10/25 10:00:11;;;;;;;13.30;7.85;;;;;;;;;;4985515;28;20046;-82
2022/10/25 10:02:37;;;;;;;13.57;7.07;;;;;;;;;;4955160;28;20163;-82
2022/10/25 10:05:03;;;;;;;11.32;5.90;;;;;;;;;;4988381;28;20113;-82
2022/10/25 10:07:31;;;;;;;14.57;7.50;;;;;;;;;;4989259;28;20035;-82
2022/10/25 10:09:59;;;;;;;12.13;6.72;;;;;;;;;;4981553;28;20089;-82
2022/10/25 10:12:45;;;;;;;9.75;6.10;;;;;;;;;;4951774;28;20078;-82
2022/10/25 10:15:21;;;;;;;11.95;6.25;;;;;;;;;;4952808;28;20035;-82
2022/10/25 10:17:47;;;;;;;10.13;5.97;;;;;;;;;;4968820;28;20039;-82
2022/10/25 10:20:16;;;;;;;11.43;6.03;;;;;;;;;;4985301;28;20042;-82
2022/10/25 10:22:52;;;;;;;14.27;5.88;;;;;;;;;;4969060;28;20031;-83
2022/10/25 10:25:25;;;;;;;11.48;5.60;;;;;;;;;;4968485;28;20463;-82
2022/10/25 10:27:52;;;;;;;9.73;5.30;;;;;;;;;;4984922;28;20125;-82
2022/10/25 10:30:30;;;;;;;10.35;4.68;;;;;;;;;;4984994;28;20094;-82
2022/10/25 10:32:59;;;;;;;9.40;4.43;;;;;;;;;;4984578;28;20489;-82
2022/10/25 10:35:25;;;;;;;9.13;4.50;;;;;;;;;;4985211;28;20031;-82
2022/10/25 10:37:50;;;;;;;10.30;5.47;;;;;;;;;;4968850;28;20459;-82
2022/10/25 10:40:16;;;;;;;10.77;4.93;;;;;;;;;;4985019;28;20039;-82
2022/10/25 10:42:41;;;;;;;11.05;5.03;;;;;;;;;;4985040;28;20035;-82
2022/10/25 10:45:06;;;;;;;9.15;4.32;;;;;;;;;;4984190;28;20418;-82
2022/10/25 10:47:55;;;;;;;11.48;5.05;;;;;;;;;;4985011;28;20471;-82
2022/10/25 10:50:21;;;;;;;11.73;5.30;;;;;;;;;;4968779;28;20118;-82
2022/10/25 10:53:02;;;;;;;8.38;4.68;;;;;;;;;;4984553;28;20118;-82
2022/10/25 10:55:31;;;;;;;8.00;4.38;;;;;;;;;;4968218;28;20031;-82
2022/10/25 10:58:06;;;;;;;7.93;4.93;;;;;;;;;;4985072;28;20039;-82
2022/10/25 11:00:32;;;;;;;9.18;4.00;;;;;;;;;;4984367;28;20098;-82
2022/10/25 11:02:57;;;;;;;7.90;4.15;;;;;;;;;;4968220;28;20495;-82
2022/10/25 11:05:30;;;;;;;6.40;3.03;;;;;;;;;;4952357;28;20035;-82
2022/10/25 11:08:14;;;;;;;11.85;4.65;;;;;;;;;;4951269;29;20042;-82
2022/10/25 11:10:40;;;;;;;6.40;3.28;;;;;;;;;;4949140;29;20032;-82
2022/10/25 11:13:06;;;;;;;7.70;3.45;;;;;;;;;;4964793;28;20042;-82
2022/10/25 11:15:45;;;;;;;7.05;3.80;;;;;;;;;;4964580;28;20062;-82
2022/10/25 11:18:10;;;;;;;7.95;3.50;;;;;;;;;;4949097;29;20043;-82
2022/10/25 11:20:49;;;;;;;5.57;3.22;;;;;;;;;;4965017;28;20055;-82
2022/10/25 11:23:49;;;;;;;7.93;3.85;;;;;;;;;;4950942;28;20386;-83
2022/10/25 11:26:34;;;;;;;7.32;3.75;;;;;;;;;;4947765;28;20552;-82
2022/10/25 11:29:36;;;;;;;6.55;3.25;;;;;;;;;;4952874;29;20039;-82
2022/10/25 11:32:26;;;;;;;6.90;2.63;;;;;;;;;;4968908;28;20430;-82
2022/10/25 11:34:54;;;;;;;7.72;3.40;;;;;;;;;;4968833;28;20039;-81
2022/10/25 11:37:21;;;;;;;6.15;2.92;;;;;;;;;;4969073;28;20100;-82
2022/10/25 11:40:07;;;;;;;6.50;2.60;;;;;;;;;;4952951;29;20426;-82
2022/10/25 11:42:54;;;;;;;8.38;2.83;;;;;;;;;;4968984;28;20091;-82
2022/10/25 11:45:21;;;;;;;5.47;3.08;;;;;;;;;;4952282;29;20529;-82
2022/10/25 11:47:55;;;;;;;4.85;2.60;;;;;;;;;;4968865;28;20040;-82
2022/10/25 11:50:48;;;;;;;6.00;3.03;;;;;;;;;;4938265;29;20074;-82
2022/10/25 11:53:21;;;;;;;5.45;2.78;;;;;;;;;;4967164;28;20497;-82
2022/10/25 11:56:00;;;;;;;6.20;2.30;;;;;;;;;;4968072;28;20040;-82
2022/10/25 11:58:43;;;;;;;6.97;2.78;;;;;;;;;;4952361;29;20069;-82
2022/10/25 12:01:43;;;;;;;7.38;3.28;;;;;;;;;;4984461;28;20039;-82
2022/10/25 12:04:18;;;;;;;8.68;3.15;;;;;;;;;;4987574;28;20110;-82
2022/10/25 12:06:53;;;;;;;5.22;2.58;;;;;;;;;;4955453;28;20102;-82
2022/10/25 12:09:37;;;;;;;4.32;2.28;;;;;;;;;;4971160;28;20039;-82
2022/10/25 12:12:10;;;;;;;4.30;1.88;;;;;;;;;;4955298;28;20110;-83
2022/10/25 12:14:43;;;;;;;4.90;2.38;;;;;;;;;;4971261;28;20114;-82
2022/10/25 12:17:28;;;;;;;4.50;1.75;;;;;;;;;;4971352;28;20506;-82
2022/10/25 12:19:56;;;;;;;4.43;1.95;;;;;;;;;;4971049;28;20037;-82
2022/10/25 12:22:48;;;;;;;4.47;1.80;;;;;;;;;;4971486;28;20038;-82
2022/10/25 12:25:16;;;;;;;4.55;1.90;;;;;;;;;;4954532;28;20031;-82
2022/10/25 12:27:42;;;;;;;5.78;2.00;;;;;;;;;;4970296;28;20032;-82
2022/10/25 12:30:17;;;;;;;4.60;2.05;;;;;;;;;;4970208;28;20082;-82
2022/10/25 12:32:56;;;;;;;5.47;2.25;;;;;;;;;;4971454;28;20055;-82
2022/10/25 12:35:28;;;;;;;4.32;1.90;;;;;;;;;;4969417;28;20027;-82
2022/10/25 12:37:55;;;;;;;8.20;4.63;;;;;;;;;;4970124;28;20034;-82
2022/10/25 12:40:22;;;;;;;21.10;12.52;;;;;;;;;;4970688;28;20059;-82
2022/10/25 12:42:53;;;;;;;17.67;10.40;;;;;;;;;;4970360;28;20031;-82
2022/10/25 12:45:44;;;;;;;26.63;16.30;;;;;;;;;;4953759;29;20038;-82
2022/10/25 12:49:07;;;;;;;31.02;19.92;;;;;;;;;;4955022;29;20039;-82
2022/10/25 12:51:35;;;;;;;28.30;18.35;;;;;;;;;;4953370;29;20039;-82
2022/10/25 12:54:06;;;;;;;30.25;18.15;;;;;;;;;;4953316;29;20090;-82
2022/10/25 12:56:53;;;;;;;28.27;16.48;;;;;;;;;;4953104;29;20078;-82
2022/10/25 12:59:41;;;;;;;29.90;18.05;;;;;;;;;;4970027;28;20516;-82
2022/10/25 13:02:13;;;;;;;27.13;16.92;;;;;;;;;;4970715;28;20118;-81
2022/10/25 13:04:54;;;;;;;26.10;15.73;;;;;;;;;;4985713;28;20117;-82
2022/10/25 13:07:20;;;;;;;26.67;15.82;;;;;;;;;;4970406;28;20031;-83
2022/10/25 13:09:45;;;;;;;27.80;17.77;;;;;;;;;;4970571;28;20046;-83
2022/10/25 13:12:14;;;;;;;27.13;16.60;;;;;;;;;;4970017;28;20031;-83
2022/10/25 13:14:44;;;;;;;25.25;14.93;;;;;;;;;;4970050;28;20078;-82
2022/10/25 13:17:16;;;;;;;22.65;14.88;;;;;;;;;;4969981;28;20383;-83
2022/10/25 13:19:51;;;;;;;24.75;14.68;;;;;;;;;;4970416;28;20498;-83
2022/10/25 13:22:26;;;;;;;27.63;15.00;;;;;;;;;;4970325;28;20387;-82
2022/10/25 13:24:52;;;;;;;19.88;12.70;;;;;;;;;;4983480;28;20517;-82
2022/10/25 13:27:19;;;;;;;21.88;13.02;;;;;;;;;;4985954;28;20067;-82
2022/10/25 13:29:58;;;;;;;25.70;12.20;;;;;;;;;;4961801;28;20035;-82
2022/10/25 13:32:24;;;;;;;23.20;12.57;;;;;;;;;;4935959;29;20071;-82
2022/10/25 13:34:49;;;;;;;19.75;11.43;;;;;;;;;;4966266;28;20512;-82
2022/10/25 13:37:33;;;;;;;19.60;10.70;;;;;;;;;;4934043;29;20130;-82
2022/10/25 13:40:02;;;;;;;20.88;11.63;;;;;;;;;;4966164;28;20082;-82
2022/10/25 13:42:32;;;;;;;17.38;9.52;;;;;;;;;;4962243;28;20054;-82
2022/10/25 13:45:03;;;;;;;18.30;9.50;;;;;;;;;;4969130;28;20031;-82
2022/10/25 13:47:37;;;;;;;18.25;9.70;;;;;;;;;;4969823;28;20446;-82
2022/10/25 13:50:28;;;;;;;15.88;9.10;;;;;;;;;;4969953;28;20054;-82
2022/10/25 13:52:58;;;;;;;10.40;6.80;;;;;;;;;;4969161;28;20026;-82
2022/10/25 13:55:24;;;;;;;12.38;6.03;;;;;;;;;;4968588;28;20085;-82
2022/10/25 13:57:53;;;;;;;13.75;7.15;;;;;;;;;;4985266;28;20109;-82
2022/10/25 14:00:28;;;;;;;10.88;4.85;;;;;;;;;;4969390;28;20379;-82
2022/10/25 14:03:09;;;;;;;8.95;4.63;;;;;;;;;;4969162;28;20027;-82
2022/10/25 14:05:55;;;;;;;9.73;4.30;;;;;;;;;;4953356;29;20046;-82
2022/10/25 14:08:30;;;;;;;9.93;4.03;;;;;;;;;;4985057;28;20118;-82
2022/10/25 14:11:09;;;;;;;5.95;2.80;;;;;;;;;;4968816;28;20118;-82
2022/10/25 14:13:53;;;;;;;6.05;2.10;;;;;;;;;;4968481;28;20478;-82
2022/10/25 14:16:53;;;;;;;5.13;0.98;;;;;;;;;;4952659;28;20039;-82
2022/10/25 14:19:28;;;;;;;3.33;1.08;;;;;;;;;;4944973;29;20051;-82
2022/10/25 14:21:53;;;;;;;3.08;1.20;;;;;;;;;;4984276;28;20560;-82
2022/10/25 14:24:19;;;;;;;4.75;1.20;;;;;;;;;;4968418;28;20047;-81
2022/10/25 14:26:55;;;;;;;4.57;1.10;;;;;;;;;;4968142;28;20061;-82
2022/10/25 14:29:22;;;;;;;3.40;1.20;;;;;;;;;;4984014;28;20031;-82
2022/10/25 14:31:47;;;;;;;4.30;1.20;;;;;;;;;;4985113;28;20089;-82
2022/10/25 14:34:23;;;;;;;3.72;1.70;;;;;;;;;;4969418;28;20043;-81
2022/10/25 14:36:56;;;;;;;3.88;1.48;;;;;;;;;;4984770;28;20126;-81
2022/10/25 14:39:26;;;;;;;4.30;1.63;;;;;;;;;;4968340;28;20042;-80
2022/10/25 14:41:57;;;;;;;7.47;1.95;;;;;;;;;;4984027;28;20063;-80
2022/10/25 14:44:26;;;;;;;4.70;1.40;;;;;;;;;;4968363;28;20097;-80
2022/10/25 14:46:52;;;;;;;6.45;1.38;;;;;;;;;;4984174;28;20038;-81
2022/10/25 14:49:18;;;;;;;4.97;1.20;;;;;;;;;;4952114;28;20032;-81
2022/10/25 14:51:43;;;;;;;4.57;1.30;;;;;;;;;;4968184;28;20119;-80
2022/10/25 14:54:09;;;;;;;4.97;1.40;;;;;;;;;;4984632;28;20031;-80
2022/10/25 14:56:58;;;;;;;4.13;1.60;;;;;;;;;;4984499;28;20110;-80
2022/10/25 14:59:35;;;;;;;3.28;1.20;;;;;;;;;;4933347;28;20042;-80
2022/10/25 15:02:03;;;;;;;3.20;1.10;;;;;;;;;;4984185;28;20041;-80